.
WxDataArchive / Data Records for 2015-10-01
2015-09-30 October 2015 2015-10-02

Data Records for Thursday, 01 October 2015

Time	Temp	Chill	HIndex	Humid	Dewpt	 Wind 	HiWind	WindDir	Rain 	Barom
-----	----	-----	------	-----	-----	------	------	-------	-----	-----
00:00	51.7	51.7	51.7	64	39.9	2	6	90	0.00	30.157 
00:05	51.7	51.7	51.7	64	39.9	1	5	90	0.00	30.157 
00:10	51.7	51.7	51.7	65	40.3	0	1	158	0.00	30.157 
00:15	51.6	51.6	51.6	65	40.2	0	5	158	0.00	30.159 
00:20	51.7	51.7	51.7	65	40.3	0	4	112	0.00	30.159 
00:25	51.7	51.7	51.7	65	40.3	0	1	112	0.00	30.159 
00:30	51.7	51.7	51.7	65	40.3	0	3	112	0.00	30.164 
00:35	51.7	51.7	51.7	65	40.3	0	3	112	0.00	30.164 
00:40	51.9	51.9	51.9	65	40.5	1	5	112	0.00	30.164 
00:45	51.9	51.9	51.9	65	40.5	1	4	135	0.00	30.162 
00:50	51.9	51.9	51.9	65	40.5	1	4	112	0.00	30.162 
00:55	51.9	51.9	51.9	65	40.5	1	5	112	0.00	30.162 
01:00	52.0	52.0	52.0	65	40.6	0	2	225	0.00	30.162 
01:05	52.0	52.0	52.0	65	40.6	0	6	135	0.00	30.162 
01:10	51.9	51.9	51.9	66	40.9	1	7	135	0.00	30.162 
01:15	51.9	51.9	51.9	66	40.9	0	2	112	0.00	30.157 
01:20	51.9	51.9	51.9	66	40.9	1	4	112	0.00	30.157 
01:25	51.7	51.7	51.7	67	41.1	0	3	68	0.00	30.157 
01:30	51.4	51.4	51.4	67	40.8	0	3	90	0.00	30.152 
01:35	51.3	51.3	51.3	67	40.7	0	2	0	0.00	30.152 
01:40	51.3	51.3	51.3	68	41.1	0	1	0	0.00	30.152 
01:45	51.1	51.1	51.1	68	40.9	1	7	90	0.00	30.153 
01:50	51.0	51.0	51.0	69	41.2	0	2	90	0.00	30.153 
01:55	51.0	51.0	51.0	69	41.2	0	2	90	0.00	30.153 
02:00	51.0	51.0	51.0	69	41.2	1	6	90	0.00	30.150 
02:05	50.8	50.8	50.8	69	41.0	1	7	158	0.00	30.150 
02:10	50.8	50.8	50.8	69	41.0	1	5	112	0.00	30.150 
02:15	50.8	50.8	50.8	69	41.0	0	3	112	0.00	30.149 
02:20	50.7	50.7	50.7	69	40.9	0	5	112	0.00	30.149 
02:25	50.5	50.5	50.5	69	40.7	0	4	90	0.00	30.149 
02:30	50.4	50.4	50.4	69	40.6	1	3	90	0.00	30.149 
02:35	50.4	50.4	50.4	70	41.0	0	3	90	0.00	30.149 
02:40	50.1	50.1	50.1	71	41.1	0	3	90	0.00	30.149 
02:45	49.9	49.9	49.9	71	40.9	0	2	90	0.00	30.148 
02:50	49.8	49.8	49.8	72	41.1	0	1	90	0.00	30.148 
02:55	49.6	49.6	49.6	72	40.9	0	1	90	0.00	30.148 
03:00	49.4	49.4	49.4	73	41.1	0	2	90	0.00	30.147 
03:05	49.2	49.2	49.2	74	41.3	0	0	---	0.00	30.147 
03:10	48.9	48.9	48.9	74	41.0	0	1	90	0.00	30.147 
03:15	48.8	48.8	48.8	75	41.2	0	0	---	0.00	30.149 
03:20	48.6	48.6	48.6	75	41.0	0	1	90	0.00	30.149 
03:25	48.5	48.5	48.5	76	41.3	0	0	---	0.00	30.149 
03:30	48.5	48.5	48.5	76	41.3	0	2	90	0.00	30.150 
03:35	48.5	48.5	48.5	77	41.6	0	1	90	0.00	30.150 
03:40	48.5	48.5	48.5	77	41.6	0	3	45	0.00	30.150 
03:45	48.6	48.6	48.6	77	41.7	0	1	45	0.00	30.146 
03:50	48.6	48.6	48.6	77	41.7	0	1	45	0.00	30.146 
03:55	48.6	48.6	48.6	77	41.7	0	1	45	0.00	30.146 
04:00	48.8	48.8	48.8	77	41.9	0	1	45	0.00	30.144 
04:05	48.8	48.8	48.8	77	41.9	0	1	45	0.00	30.144 
04:10	48.8	48.8	48.8	77	41.9	0	1	45	0.00	30.144 
04:15	48.8	48.8	48.8	77	41.9	0	4	112	0.00	30.142 
04:20	48.8	48.8	48.8	76	41.6	0	4	112	0.00	30.142 
04:25	48.9	48.9	48.9	76	41.7	0	2	45	0.00	30.142 
04:30	49.1	49.1	49.1	75	41.5	1	4	112	0.00	30.142 
04:35	49.2	49.2	49.2	75	41.6	0	2	112	0.00	30.142 
04:40	49.2	49.2	49.2	75	41.6	0	2	112	0.00	30.142 
04:45	49.4	49.4	49.4	74	41.5	0	3	112	0.00	30.140 
04:50	49.5	49.5	49.5	73	41.2	1	5	135	0.00	30.140 
04:55	49.6	49.6	49.6	72	40.9	1	4	112	0.00	30.140 
05:00	49.6	49.6	49.6	72	40.9	0	4	112	0.00	30.140 
05:05	49.8	49.8	49.8	72	41.1	0	3	135	0.00	30.140 
05:10	49.8	49.8	49.8	72	41.1	0	3	135	0.00	30.140 
05:15	49.8	49.8	49.8	72	41.1	0	3	135	0.00	30.144 
05:20	49.9	49.9	49.9	71	40.9	0	3	135	0.00	30.144 
05:25	49.9	49.9	49.9	71	40.9	0	3	135	0.00	30.144 
05:30	49.9	49.9	49.9	71	40.9	0	2	135	0.00	30.145 
05:35	50.1	50.1	50.1	70	40.7	1	4	135	0.00	30.145 
05:40	50.1	50.1	50.1	69	40.3	0	3	112	0.00	30.145 
05:45	50.2	50.2	50.2	69	40.4	0	3	68	0.00	30.144 
05:50	50.2	50.2	50.2	69	40.4	0	3	68	0.00	30.144 
05:55	50.4	50.4	50.4	69	40.6	1	5	68	0.00	30.144 
06:00	50.4	50.4	50.4	68	40.2	1	5	112	0.00	30.149 
06:05	50.4	50.4	50.4	69	40.6	1	4	112	0.00	30.149 
06:10	50.5	50.5	50.5	68	40.3	1	6	68	0.00	30.149 
06:15	50.5	50.5	50.5	68	40.3	0	3	68	0.00	30.153 
06:20	50.5	50.5	50.5	68	40.3	1	4	112	0.00	30.153 
06:25	50.5	50.5	50.5	68	40.3	0	3	112	0.00	30.153 
06:30	50.7	50.7	50.7	68	40.5	1	9	112	0.00	30.154 
06:35	50.7	50.7	50.7	67	40.1	1	3	135	0.00	30.154 
06:40	50.8	50.8	50.8	67	40.2	1	4	90	0.00	30.154 
06:45	50.8	50.8	50.8	67	40.2	0	5	90	0.00	30.157 
06:50	50.7	50.7	50.7	67	40.1	0	5	90	0.00	30.157 
06:55	50.5	50.5	50.5	67	40.0	1	4	112	0.00	30.157 
07:00	50.2	50.2	50.2	67	39.7	0	3	112	0.00	30.159 
07:05	50.1	50.1	50.1	68	40.0	1	4	112	0.00	30.159 
07:10	49.8	49.8	49.8	68	39.7	1	4	90	0.00	30.159 
07:15	49.6	49.6	49.6	69	39.9	1	4	112	0.00	30.166 
07:20	49.4	49.4	49.4	69	39.7	1	5	112	0.00	30.166 
07:25	49.2	49.2	49.2	70	39.8	0	5	112	0.00	30.166 
07:30	48.9	48.9	48.9	70	39.6	1	4	90	0.00	30.171 
07:35	48.8	48.8	48.8	70	39.5	0	4	90	0.00	30.171 
07:40	48.6	48.6	48.6	71	39.6	0	3	90	0.00	30.171 
07:45	48.3	48.3	48.3	72	39.7	0	3	90	0.00	30.172 
07:50	48.2	48.2	48.2	73	40.0	0	3	90	0.00	30.172 
07:55	47.9	47.9	47.9	73	39.7	0	4	90	0.00	30.172 
08:00	47.7	47.7	47.7	74	39.8	0	1	112	0.00	30.175 
08:05	47.6	47.6	47.6	74	39.7	0	4	90	0.00	30.175 
08:10	47.4	47.4	47.4	75	39.9	0	3	112	0.00	30.175 
08:15	47.3	47.3	47.3	75	39.8	0	4	112	0.00	30.177 
08:20	47.1	47.1	47.1	76	39.9	0	3	90	0.00	30.177 
08:25	47.1	47.1	47.1	76	39.9	1	6	90	0.00	30.177 
08:30	47.1	47.1	47.1	76	39.9	0	2	90	0.00	30.178 
08:35	47.3	47.3	47.3	76	40.1	1	4	90	0.00	30.178 
08:40	47.3	47.3	47.3	76	40.1	0	5	135	0.00	30.178 
08:45	47.4	47.4	47.4	76	40.2	1	6	90	0.00	30.182 
08:50	47.4	47.4	47.4	76	40.2	0	4	90	0.00	30.182 
08:55	47.6	47.6	47.6	76	40.4	1	4	90	0.00	30.182 
09:00	47.7	47.7	47.7	75	40.2	1	4	68	0.00	30.185 
09:05	47.7	47.7	47.7	75	40.2	1	7	90	0.00	30.185 
09:10	47.7	47.7	47.7	75	40.2	1	6	90	0.00	30.185 
09:15	47.7	47.7	47.7	75	40.2	1	6	112	0.00	30.192 
09:20	47.7	47.7	47.7	75	40.2	0	3	112	0.00	30.192 
09:25	47.9	47.9	47.9	75	40.4	0	4	112	0.00	30.192 
09:30	48.0	48.0	48.0	75	40.5	1	6	112	0.00	30.194 
09:35	48.5	48.5	48.5	75	40.9	1	4	112	0.00	30.194 
09:40	48.8	48.8	48.8	74	40.9	0	4	112	0.00	30.194 
09:45	49.1	49.1	49.1	73	40.8	2	6	90	0.00	30.193 
09:50	49.5	49.5	49.5	73	41.2	1	4	68	0.00	30.193 
09:55	50.1	50.1	50.1	72	41.4	2	6	112	0.00	30.193 
10:00	50.5	50.5	50.5	72	41.8	2	9	90	0.00	30.197 
10:05	51.1	51.1	51.1	71	42.0	1	4	90	0.00	30.197 
10:10	51.6	51.6	51.6	71	42.5	1	4	135	0.00	30.197 
10:15	52.0	52.0	52.0	70	42.5	1	6	112	0.00	30.198 
10:20	52.6	52.6	52.6	68	42.3	1	5	90	0.00	30.198 
10:25	53.1	53.1	53.1	67	42.4	1	5	22	0.00	30.198 
10:30	53.8	53.8	53.8	66	42.7	2	6	90	0.00	30.202 
10:35	54.4	54.4	54.4	64	42.5	2	9	112	0.00	30.202 
10:40	55.0	55.0	55.0	64	43.0	2	6	90	0.00	30.202 
10:45	55.4	55.4	55.4	61	42.2	3	11	90	0.00	30.203 
10:50	55.7	55.7	55.7	60	42.0	2	10	68	0.00	30.203 
10:55	56.0	56.0	56.0	58	41.4	2	8	68	0.00	30.203 
11:00	56.3	56.3	56.3	58	41.7	2	7	90	0.00	30.203 
11:05	56.5	56.5	56.5	58	41.9	2	5	112	0.00	30.203 
11:10	56.6	56.6	56.6	58	42.0	2	7	90	0.00	30.203 
11:15	56.9	56.9	56.9	56	41.4	3	10	90	0.00	30.203 
11:20	56.9	56.9	56.9	55	40.9	3	9	90	0.00	30.203 
11:25	57.3	57.3	57.3	54	40.8	2	9	68	0.00	30.203 
11:30	57.6	57.6	57.6	53	40.6	3	10	90	0.00	30.199 
11:35	57.5	57.5	57.5	54	41.0	2	7	68	0.00	30.199 
11:40	57.6	57.6	57.6	53	40.6	2	7	68	0.00	30.199 
11:45	57.8	57.8	57.8	52	40.3	3	9	68	0.00	30.203 
11:50	58.4	58.4	58.4	52	40.8	2	10	90	0.00	30.203 
11:55	58.6	58.6	58.6	50	40.0	2	7	68	0.00	30.203 
12:00	58.0	58.0	58.0	52	40.5	2	10	90	0.00	30.204 
12:05	58.1	58.1	58.1	53	41.1	3	11	90	0.00	30.204 
12:10	58.4	58.4	58.4	52	40.8	4	17	90	0.00	30.204 
12:15	58.4	58.4	58.4	51	40.3	3	13	90	0.00	30.203 
12:20	58.1	58.1	58.1	52	40.6	3	10	112	0.00	30.203 
12:25	57.8	57.8	57.8	53	40.8	3	10	90	0.00	30.203 
12:30	57.8	57.8	57.8	50	39.3	4	11	90	0.00	30.205 
12:35	57.3	57.3	57.3	51	39.3	3	7	112	0.00	30.205 
12:40	57.2	57.2	57.2	53	40.2	3	11	112	0.00	30.205 
12:45	57.3	57.3	57.3	51	39.3	3	11	112	0.00	30.203 
12:50	58.1	58.1	58.1	50	39.6	2	9	90	0.00	30.203 
12:55	58.6	58.6	58.6	49	39.5	2	10	112	0.00	30.203 
13:00	59.0	59.0	59.0	46	38.2	3	11	90	0.00	30.204 
13:05	59.3	59.3	59.3	46	38.5	3	12	90	0.00	30.204 
13:10	59.2	59.2	59.2	47	39.0	3	11	90	0.00	30.204 
13:15	59.2	59.2	59.2	46	38.4	4	12	112	0.00	30.205 
13:20	59.5	59.5	59.5	46	38.7	3	10	112	0.00	30.205 
13:25	59.6	59.6	59.6	47	39.3	3	12	112	0.00	30.205 
13:30	59.3	59.3	59.3	47	39.1	3	9	90	0.00	30.202 
13:35	59.0	59.0	59.0	47	38.8	3	9	90	0.00	30.202 
13:40	58.9	58.9	58.9	47	38.7	3	11	90	0.00	30.202 
13:45	59.2	59.2	59.2	50	40.6	2	6	90	0.00	30.203 
13:50	59.2	59.2	59.2	46	38.4	2	11	90	0.00	30.203 
13:55	59.0	59.0	59.0	47	38.8	2	7	90	0.00	30.203 
14:00	59.0	59.0	59.0	47	38.8	4	10	68	0.00	30.204 
14:05	59.0	59.0	59.0	48	39.3	3	11	90	0.00	30.204 
14:10	59.2	59.2	59.2	47	39.0	2	11	68	0.00	30.204 
14:15	59.2	59.2	59.2	46	38.4	3	10	90	0.00	30.208 
14:20	58.9	58.9	58.9	47	38.7	2	7	90	0.00	30.208 
14:25	58.9	58.9	58.9	49	39.8	1	5	90	0.00	30.208 
14:30	58.7	58.7	58.7	47	38.5	3	7	90	0.00	30.204 
14:35	58.7	58.7	58.7	46	38.0	3	10	112	0.00	30.204 
14:40	59.0	59.0	59.0	46	38.2	2	7	112	0.00	30.204 
14:45	59.2	59.2	59.2	46	38.4	4	13	90	0.00	30.202 
14:50	59.3	59.3	59.3	46	38.5	2	10	0	0.00	30.202 
14:55	59.6	59.6	59.6	45	38.2	3	7	90	0.00	30.202 
15:00	59.8	59.8	59.8	43	37.3	5	12	90	0.00	30.199 
15:05	59.8	59.8	59.8	44	37.8	4	12	90	0.00	30.199 
15:10	59.5	59.5	59.5	44	37.6	4	11	112	0.00	30.199 
15:15	59.3	59.3	59.3	46	38.5	3	9	112	0.00	30.190 
15:20	59.8	59.8	59.8	45	38.4	4	10	112	0.00	30.190 
15:25	59.8	59.8	59.8	44	37.8	3	9	90	0.00	30.190 
15:30	59.6	59.6	59.6	46	38.8	1	11	68	0.00	30.193 
15:35	59.6	59.6	59.6	47	39.3	1	5	90	0.00	30.193 
15:40	59.6	59.6	59.6	45	38.2	2	6	90	0.00	30.193 
15:45	59.5	59.5	59.5	44	37.6	3	14	90	0.00	30.189 
15:50	59.6	59.6	59.6	45	38.2	2	6	90	0.00	30.189 
15:55	59.9	59.9	59.9	44	37.9	3	9	112	0.00	30.189 
16:00	59.8	59.8	59.8	44	37.8	3	7	90	0.00	30.196 
16:05	59.8	59.8	59.8	43	37.3	2	9	90	0.00	30.196 
16:10	59.8	59.8	59.8	42	36.7	4	12	112	0.00	30.196 
16:15	59.6	59.6	59.6	42	36.5	3	10	90	0.00	30.187 
16:20	59.6	59.6	59.6	42	36.5	4	12	90	0.00	30.187 
16:25	59.6	59.6	59.6	43	37.1	3	10	90	0.00	30.187 
16:30	59.6	59.6	59.6	45	38.2	4	13	90	0.00	30.188 
16:35	59.5	59.5	59.5	45	38.1	2	6	90	0.00	30.188 
16:40	59.3	59.3	59.3	45	38.0	2	7	90	0.00	30.188 
16:45	59.0	59.0	59.0	44	37.1	2	10	90	0.00	30.190 
16:50	59.2	59.2	59.2	45	37.9	2	5	90	0.00	30.190 
16:55	59.5	59.5	59.5	44	37.6	2	6	90	0.00	30.190 
17:00	59.6	59.6	59.6	42	36.5	2	7	90	0.00	30.188 
17:05	59.6	59.6	59.6	42	36.5	2	10	68	0.00	30.188 
17:10	59.5	59.5	59.5	42	36.4	3	8	22	0.00	30.188 
17:15	59.2	59.2	59.2	43	36.7	1	5	112	0.00	30.189 
17:20	59.0	59.0	59.0	43	36.5	2	9	112	0.00	30.189 
17:25	59.0	59.0	59.0	44	37.1	1	5	90	0.00	30.189 
17:30	58.9	58.9	58.9	42	35.9	2	10	90	0.00	30.190 
17:35	58.9	58.9	58.9	41	35.2	3	10	90	0.00	30.190 
17:40	58.9	58.9	58.9	41	35.2	1	7	68	0.00	30.190 
17:45	58.9	58.9	58.9	41	35.2	2	5	90	0.00	30.194 
17:50	59.0	59.0	59.0	41	35.3	2	7	90	0.00	30.194 
17:55	59.2	59.2	59.2	42	36.1	2	9	68	0.00	30.194 
18:00	59.2	59.2	59.2	41	35.5	2	10	112	0.00	30.199 
18:05	59.2	59.2	59.2	41	35.5	2	9	90	0.00	30.199 
18:10	59.0	59.0	59.0	42	35.9	4	10	112	0.00	30.199 
18:15	59.0	59.0	59.0	42	35.9	3	10	90	0.00	30.200 
18:20	58.9	58.9	58.9	42	35.9	3	9	68	0.00	30.200 
18:25	58.6	58.6	58.6	43	36.2	2	6	90	0.00	30.200 
18:30	58.3	58.3	58.3	43	35.9	4	12	112	0.00	30.204 
18:35	58.1	58.1	58.1	43	35.7	3	10	68	0.00	30.204 
18:40	58.1	58.1	58.1	44	36.3	4	10	90	0.00	30.204 
18:45	58.0	58.0	58.0	44	36.2	2	6	112	0.00	30.209 
18:50	57.6	57.6	57.6	44	35.8	2	9	68	0.00	30.209 
18:55	57.5	57.5	57.5	45	36.3	2	6	90	0.00	30.209 
19:00	57.3	57.3	57.3	46	36.7	2	7	112	0.00	30.219 
19:05	57.0	57.0	57.0	46	36.4	1	7	90	0.00	30.219 
19:10	56.9	56.9	56.9	46	36.3	1	5	90	0.00	30.219 
19:15	56.7	56.7	56.7	46	36.2	2	9	90	0.00	30.220 
19:20	56.6	56.6	56.6	46	36.1	1	5	112	0.00	30.220 
19:25	56.5	56.5	56.5	47	36.5	0	3	22	0.00	30.220 
19:30	56.3	56.3	56.3	47	36.3	1	3	68	0.00	30.222 
19:35	56.2	56.2	56.2	48	36.8	1	3	68	0.00	30.222 
19:40	56.0	56.0	56.0	48	36.6	1	4	68	0.00	30.222 
19:45	55.9	55.9	55.9	48	36.5	0	3	68	0.00	30.223 
19:50	55.7	55.7	55.7	49	36.8	0	4	68	0.00	30.223 
19:55	55.7	55.7	55.7	49	36.8	0	2	68	0.00	30.223 
20:00	55.6	55.6	55.6	50	37.3	0	3	68	0.00	30.224 
20:05	55.3	55.3	55.3	51	37.5	0	1	68	0.00	30.224 
20:10	55.1	55.1	55.1	52	37.8	0	3	68	0.00	30.224 
20:15	55.0	55.0	55.0	52	37.7	1	3	90	0.00	30.225 
20:20	55.0	55.0	55.0	52	37.7	1	3	90	0.00	30.225 
20:25	54.8	54.8	54.8	53	38.0	1	5	135	0.00	30.225 
20:30	54.7	54.7	54.7	53	37.9	0	3	135	0.00	30.230 
20:35	54.5	54.5	54.5	54	38.2	0	2	135	0.00	30.230 
20:40	54.4	54.4	54.4	54	38.1	1	3	135	0.00	30.230 
20:45	54.2	54.2	54.2	54	37.9	1	5	112	0.00	30.236 
20:50	54.2	54.2	54.2	54	37.9	1	5	90	0.00	30.236 
20:55	54.1	54.1	54.1	54	37.8	1	3	90	0.00	30.236 
21:00	54.1	54.1	54.1	55	38.3	0	5	90	0.00	30.241 
21:05	53.8	53.8	53.8	56	38.5	0	2	90	0.00	30.241 
21:10	53.6	53.6	53.6	56	38.3	0	2	90	0.00	30.241 
21:15	53.5	53.5	53.5	57	38.6	0	2	90	0.00	30.239 
21:20	53.3	53.3	53.3	57	38.5	0	2	90	0.00	30.239 
21:25	53.2	53.2	53.2	56	37.9	0	2	90	0.00	30.239 
21:30	53.2	53.2	53.2	56	37.9	1	2	90	0.00	30.240 
21:35	53.2	53.2	53.2	55	37.5	2	6	90	0.00	30.240 
21:40	53.2	53.2	53.2	54	37.0	1	3	112	0.00	30.240 
21:45	53.2	53.2	53.2	55	37.5	1	5	90	0.00	30.239 
21:50	53.2	53.2	53.2	54	37.0	2	6	90	0.00	30.239 
21:55	53.2	53.2	53.2	54	37.0	1	5	90	0.00	30.239 
22:00	53.2	53.2	53.2	55	37.5	1	4	90	0.00	30.238 
22:05	53.1	53.1	53.1	55	37.4	1	3	90	0.00	30.238 
22:10	52.9	52.9	52.9	55	37.2	1	4	90	0.00	30.238 
22:15	52.8	52.8	52.8	56	37.5	1	3	90	0.00	30.237 
22:20	52.8	52.8	52.8	57	38.0	1	6	68	0.00	30.237 
22:25	52.6	52.6	52.6	58	38.2	1	5	90	0.00	30.237 
22:30	52.5	52.5	52.5	58	38.2	2	5	90	0.00	30.238 
22:35	52.3	52.3	52.3	58	38.0	1	6	90	0.00	30.238 
22:40	52.3	52.3	52.3	59	38.4	1	6	68	0.00	30.238 
22:45	52.2	52.2	52.2	59	38.3	2	6	68	0.00	30.238 
22:50	52.0	52.0	52.0	60	38.5	1	5	90	0.00	30.238 
22:55	51.9	51.9	51.9	60	38.5	1	6	68	0.00	30.238 
23:00	51.9	51.9	51.9	60	38.5	1	6	90	0.00	30.238 
23:05	51.7	51.7	51.7	60	38.3	1	7	90	0.00	30.238 
23:10	51.6	51.6	51.6	61	38.6	2	11	112	0.00	30.238 
23:15	51.4	51.4	51.4	61	38.4	1	7	135	0.00	30.235 
23:20	51.3	51.3	51.3	61	38.3	2	7	112	0.00	30.235 
23:25	51.3	51.3	51.3	62	38.7	1	10	90	0.00	30.235 
23:30	51.1	51.1	51.1	62	38.5	2	7	112	0.00	30.240 
23:35	51.0	51.0	51.0	62	38.4	1	5	90	0.00	30.240 
23:40	50.8	50.8	50.8	63	38.7	2	7	135	0.00	30.240 
23:45	50.8	50.8	50.8	63	38.7	1	5	90	0.00	30.238 
23:50	50.7	50.7	50.7	63	38.6	2	5	90	0.00	30.238 
23:55	50.7	50.7	50.7	64	39.0	1	5	90	0.00	30.238 

CoCoRaHS
IN-AL-39
A2 Web Hosting
Creative Commons License
GoDaddy
search engine by freefind advanced

loaded 2018-11-16 11:53:46 • last modified 2010-11-18 10:43:29
Privacy PolicyDisclaimer
• wx.awcolley.com is powered by PmWiki v.2002016 •
• all content (unless otherwise noted) © 2018 A W Colley